sensor_id;sensor_type;location;lat;lon;timestamp;P1;durP1;ratioP1;P2;durP2;ratioP2
3865;SDS011;1948;53.250;10.412;2023-09-19T00:02:17;7.03;;;2.20;;
3865;SDS011;1948;53.250;10.412;2023-09-19T00:04:45;2.10;;;2.00;;
3865;SDS011;1948;53.250;10.412;2023-09-19T00:07:14;2.43;;;2.27;;
3865;SDS011;1948;53.250;10.412;2023-09-19T00:09:42;2.30;;;2.10;;
3865;SDS011;1948;53.250;10.412;2023-09-19T00:12:16;8.50;;;2.77;;
3865;SDS011;1948;53.250;10.412;2023-09-19T00:14:46;15.97;;;2.37;;
3865;SDS011;1948;53.250;10.412;2023-09-19T00:17:17;6.80;;;2.77;;
3865;SDS011;1948;53.250;10.412;2023-09-19T00:19:45;4.43;;;2.10;;
3865;SDS011;1948;53.250;10.412;2023-09-19T00:22:13;2.20;;;2.00;;
3865;SDS011;1948;53.250;10.412;2023-09-19T00:24:42;4.53;;;2.20;;
3865;SDS011;1948;53.250;10.412;2023-09-19T00:27:09;7.10;;;2.40;;
3865;SDS011;1948;53.250;10.412;2023-09-19T00:29:36;4.10;;;2.17;;
3865;SDS011;1948;53.250;10.412;2023-09-19T00:32:04;2.60;;;2.17;;
3865;SDS011;1948;53.250;10.412;2023-09-19T00:34:34;5.70;;;2.40;;
3865;SDS011;1948;53.250;10.412;2023-09-19T00:37:04;5.80;;;2.87;;
3865;SDS011;1948;53.250;10.412;2023-09-19T00:39:31;2.80;;;2.60;;
3865;SDS011;1948;53.250;10.412;2023-09-19T00:41:58;3.73;;;2.77;;
3865;SDS011;1948;53.250;10.412;2023-09-19T00:44:33;2.60;;;2.37;;
3865;SDS011;1948;53.250;10.412;2023-09-19T00:47:04;3.07;;;2.40;;
3865;SDS011;1948;53.250;10.412;2023-09-19T00:49:32;7.43;;;2.90;;
3865;SDS011;1948;53.250;10.412;2023-09-19T00:52:02;3.47;;;3.07;;
3865;SDS011;1948;53.250;10.412;2023-09-19T00:54:33;3.23;;;3.03;;
3865;SDS011;1948;53.250;10.412;2023-09-19T00:57:04;4.20;;;3.30;;
3865;SDS011;1948;53.250;10.412;2023-09-19T00:59:37;3.90;;;3.27;;
3865;SDS011;1948;53.250;10.412;2023-09-19T01:02:05;3.27;;;2.93;;
3865;SDS011;1948;53.250;10.412;2023-09-19T01:04:34;3.43;;;3.20;;
3865;SDS011;1948;53.250;10.412;2023-09-19T01:07:02;3.50;;;3.20;;
3865;SDS011;1948;53.250;10.412;2023-09-19T01:09:30;4.40;;;3.10;;
3865;SDS011;1948;53.250;10.412;2023-09-19T01:11:58;5.03;;;3.80;;
3865;SDS011;1948;53.250;10.412;2023-09-19T01:14:34;3.67;;;3.37;;
3865;SDS011;1948;53.250;10.412;2023-09-19T01:17:23;3.60;;;3.30;;
3865;SDS011;1948;53.250;10.412;2023-09-19T01:25:50;4.40;;;3.10;;
3865;SDS011;1948;53.250;10.412;2023-09-19T01:28:53;6.90;;;4.40;;
3865;SDS011;1948;53.250;10.412;2023-09-19T01:31:39;13.33;;;3.60;;
3865;SDS011;1948;53.250;10.412;2023-09-19T01:34:09;4.70;;;4.30;;
3865;SDS011;1948;53.250;10.412;2023-09-19T01:36:37;13.07;;;4.47;;
3865;SDS011;1948;53.250;10.412;2023-09-19T01:39:05;11.07;;;4.27;;
3865;SDS011;1948;53.250;10.412;2023-09-19T01:45:27;7.93;;;4.47;;
3865;SDS011;1948;53.250;10.412;2023-09-19T01:47:52;6.27;;;4.40;;
3865;SDS011;1948;53.250;10.412;2023-09-19T01:50:32;4.30;;;3.93;;
3865;SDS011;1948;53.250;10.412;2023-09-19T01:54:00;10.40;;;5.47;;
3865;SDS011;1948;53.250;10.412;2023-09-19T01:56:42;6.10;;;4.33;;
3865;SDS011;1948;53.250;10.412;2023-09-19T01:59:16;10.67;;;4.50;;
3865;SDS011;1948;53.250;10.412;2023-09-19T02:01:52;5.43;;;4.23;;
3865;SDS011;1948;53.250;10.412;2023-09-19T02:04:23;11.13;;;4.03;;
3865;SDS011;1948;53.250;10.412;2023-09-19T02:06:50;4.50;;;4.10;;
3865;SDS011;1948;53.250;10.412;2023-09-19T02:09:18;8.07;;;4.10;;
3865;SDS011;1948;53.250;10.412;2023-09-19T02:11:47;9.17;;;4.33;;
3865;SDS011;1948;53.250;10.412;2023-09-19T02:14:15;15.07;;;4.93;;
3865;SDS011;1948;53.250;10.412;2023-09-19T02:16:43;4.50;;;4.10;;
3865;SDS011;1948;53.250;10.412;2023-09-19T02:19:11;10.47;;;4.30;;
3865;SDS011;1948;53.250;10.412;2023-09-19T02:21:39;14.23;;;5.10;;
3865;SDS011;1948;53.250;10.412;2023-09-19T02:24:07;11.07;;;5.53;;
3865;SDS011;1948;53.250;10.412;2023-09-19T02:26:36;5.77;;;4.60;;
3865;SDS011;1948;53.250;10.412;2023-09-19T02:29:03;17.03;;;4.93;;
3865;SDS011;1948;53.250;10.412;2023-09-19T02:31:31;8.50;;;4.63;;
3865;SDS011;1948;53.250;10.412;2023-09-19T02:34:00;6.90;;;4.23;;
3865;SDS011;1948;53.250;10.412;2023-09-19T02:36:27;8.90;;;4.67;;
3865;SDS011;1948;53.250;10.412;2023-09-19T02:38:57;7.67;;;4.50;;
3865;SDS011;1948;53.250;10.412;2023-09-19T02:41:24;25.00;;;4.73;;
3865;SDS011;1948;53.250;10.412;2023-09-19T02:43:52;11.87;;;4.73;;
3865;SDS011;1948;53.250;10.412;2023-09-19T02:46:20;4.70;;;4.20;;
3865;SDS011;1948;53.250;10.412;2023-09-19T02:48:48;14.50;;;3.90;;
3865;SDS011;1948;53.250;10.412;2023-09-19T02:51:15;6.33;;;4.60;;
3865;SDS011;1948;53.250;10.412;2023-09-19T02:53:42;7.17;;;4.27;;
3865;SDS011;1948;53.250;10.412;2023-09-19T02:56:10;11.17;;;4.23;;
3865;SDS011;1948;53.250;10.412;2023-09-19T02:58:39;12.50;;;4.30;;
3865;SDS011;1948;53.250;10.412;2023-09-19T03:01:10;3.90;;;3.57;;
3865;SDS011;1948;53.250;10.412;2023-09-19T03:03:39;5.10;;;4.00;;
3865;SDS011;1948;53.250;10.412;2023-09-19T03:06:08;9.43;;;4.53;;
3865;SDS011;1948;53.250;10.412;2023-09-19T03:08:39;6.93;;;4.13;;
3865;SDS011;1948;53.250;10.412;2023-09-19T03:11:08;9.03;;;3.83;;
3865;SDS011;1948;53.250;10.412;2023-09-19T03:13:37;10.97;;;4.17;;
3865;SDS011;1948;53.250;10.412;2023-09-19T03:16:07;5.80;;;2.87;;
3865;SDS011;1948;53.250;10.412;2023-09-19T03:18:39;4.00;;;3.00;;
3865;SDS011;1948;53.250;10.412;2023-09-19T03:21:07;9.17;;;3.83;;
3865;SDS011;1948;53.250;10.412;2023-09-19T03:23:34;20.90;;;3.90;;
3865;SDS011;1948;53.250;10.412;2023-09-19T03:26:01;9.60;;;3.50;;
3865;SDS011;1948;53.250;10.412;2023-09-19T03:28:32;8.47;;;3.10;;
3865;SDS011;1948;53.250;10.412;2023-09-19T03:31:04;9.33;;;3.30;;
3865;SDS011;1948;53.250;10.412;2023-09-19T03:33:35;6.80;;;2.93;;
3865;SDS011;1948;53.250;10.412;2023-09-19T03:36:07;3.63;;;2.87;;
3865;SDS011;1948;53.250;10.412;2023-09-19T03:38:37;5.03;;;2.43;;
3865;SDS011;1948;53.250;10.412;2023-09-19T03:41:06;3.30;;;2.20;;
3865;SDS011;1948;53.250;10.412;2023-09-19T03:43:35;2.30;;;2.20;;
3865;SDS011;1948;53.250;10.412;2023-09-19T03:46:06;4.40;;;2.07;;
3865;SDS011;1948;53.250;10.412;2023-09-19T03:48:34;4.40;;;2.23;;
3865;SDS011;1948;53.250;10.412;2023-09-19T03:51:03;6.57;;;2.27;;
3865;SDS011;1948;53.250;10.412;2023-09-19T03:53:30;7.60;;;2.37;;
3865;SDS011;1948;53.250;10.412;2023-09-19T03:55:58;4.10;;;1.93;;
3865;SDS011;1948;53.250;10.412;2023-09-19T03:58:26;6.93;;;2.10;;
3865;SDS011;1948;53.250;10.412;2023-09-19T04:00:57;2.50;;;2.37;;
3865;SDS011;1948;53.250;10.412;2023-09-19T04:03:25;5.33;;;2.03;;
3865;SDS011;1948;53.250;10.412;2023-09-19T04:06:02;7.50;;;2.67;;
3865;SDS011;1948;53.250;10.412;2023-09-19T04:08:29;2.67;;;2.57;;
3865;SDS011;1948;53.250;10.412;2023-09-19T04:10:57;3.23;;;2.30;;
3865;SDS011;1948;53.250;10.412;2023-09-19T04:13:24;6.83;;;2.60;;
3865;SDS011;1948;53.250;10.412;2023-09-19T04:15:52;2.60;;;2.40;;
3865;SDS011;1948;53.250;10.412;2023-09-19T04:18:22;9.50;;;3.27;;
3865;SDS011;1948;53.250;10.412;2023-09-19T04:20:51;20.30;;;3.10;;
3865;SDS011;1948;53.250;10.412;2023-09-19T04:23:22;18.43;;;2.80;;
3865;SDS011;1948;53.250;10.412;2023-09-19T04:25:51;8.43;;;2.93;;
3865;SDS011;1948;53.250;10.412;2023-09-19T04:28:22;8.60;;;2.87;;
3865;SDS011;1948;53.250;10.412;2023-09-19T04:30:53;5.37;;;2.67;;
3865;SDS011;1948;53.250;10.412;2023-09-19T04:33:22;7.90;;;2.70;;
3865;SDS011;1948;53.250;10.412;2023-09-19T04:35:50;4.60;;;2.77;;
3865;SDS011;1948;53.250;10.412;2023-09-19T04:38:18;4.27;;;2.80;;
3865;SDS011;1948;53.250;10.412;2023-09-19T04:40:46;7.67;;;3.40;;
3865;SDS011;1948;53.250;10.412;2023-09-19T04:43:18;11.40;;;2.97;;
3865;SDS011;1948;53.250;10.412;2023-09-19T04:45:45;13.07;;;3.07;;
3865;SDS011;1948;53.250;10.412;2023-09-19T04:48:15;6.40;;;2.53;;
3865;SDS011;1948;53.250;10.412;2023-09-19T04:50:42;12.83;;;2.90;;
3865;SDS011;1948;53.250;10.412;2023-09-19T04:53:10;7.30;;;2.70;;
3865;SDS011;1948;53.250;10.412;2023-09-19T04:55:38;10.00;;;2.77;;
3865;SDS011;1948;53.250;10.412;2023-09-19T04:58:07;8.23;;;2.87;;
3865;SDS011;1948;53.250;10.412;2023-09-19T05:00:34;3.30;;;2.97;;
3865;SDS011;1948;53.250;10.412;2023-09-19T05:03:01;6.17;;;2.40;;
3865;SDS011;1948;53.250;10.412;2023-09-19T05:05:33;7.10;;;2.77;;
3865;SDS011;1948;53.250;10.412;2023-09-19T05:08:01;8.40;;;2.57;;
3865;SDS011;1948;53.250;10.412;2023-09-19T05:10:32;6.97;;;2.73;;
3865;SDS011;1948;53.250;10.412;2023-09-19T05:12:59;14.10;;;3.20;;
3865;SDS011;1948;53.250;10.412;2023-09-19T05:15:27;6.07;;;3.33;;
3865;SDS011;1948;53.250;10.412;2023-09-19T05:17:54;14.40;;;3.03;;
3865;SDS011;1948;53.250;10.412;2023-09-19T05:20:24;7.90;;;2.97;;
3865;SDS011;1948;53.250;10.412;2023-09-19T05:23:03;11.73;;;2.97;;
3865;SDS011;1948;53.250;10.412;2023-09-19T05:25:38;13.50;;;3.03;;
3865;SDS011;1948;53.250;10.412;2023-09-19T05:28:10;7.40;;;3.30;;
3865;SDS011;1948;53.250;10.412;2023-09-19T05:30:41;10.90;;;2.80;;
3865;SDS011;1948;53.250;10.412;2023-09-19T05:33:12;9.20;;;3.03;;
3865;SDS011;1948;53.250;10.412;2023-09-19T05:35:40;12.13;;;3.20;;
3865;SDS011;1948;53.250;10.412;2023-09-19T05:38:09;14.00;;;3.53;;
3865;SDS011;1948;53.250;10.412;2023-09-19T05:40:38;10.93;;;3.67;;
3865;SDS011;1948;53.250;10.412;2023-09-19T05:43:08;10.83;;;3.00;;
3865;SDS011;1948;53.250;10.412;2023-09-19T05:45:42;6.67;;;3.40;;
3865;SDS011;1948;53.250;10.412;2023-09-19T05:48:10;16.37;;;3.40;;
3865;SDS011;1948;53.250;10.412;2023-09-19T05:50:43;18.73;;;3.10;;
3865;SDS011;1948;53.250;10.412;2023-09-19T05:53:13;17.70;;;3.57;;
3865;SDS011;1948;53.250;10.412;2023-09-19T05:55:41;18.30;;;3.57;;
3865;SDS011;1948;53.250;10.412;2023-09-19T05:58:09;13.97;;;3.73;;
3865;SDS011;1948;53.250;10.412;2023-09-19T06:00:37;12.53;;;3.10;;
3865;SDS011;1948;53.250;10.412;2023-09-19T06:03:05;13.73;;;3.90;;
3865;SDS011;1948;53.250;10.412;2023-09-19T06:05:33;10.30;;;3.90;;
3865;SDS011;1948;53.250;10.412;2023-09-19T06:08:00;13.87;;;3.83;;
3865;SDS011;1948;53.250;10.412;2023-09-19T06:10:30;15.40;;;4.10;;
3865;SDS011;1948;53.250;10.412;2023-09-19T06:13:04;13.57;;;3.77;;
3865;SDS011;1948;53.250;10.412;2023-09-19T06:15:37;12.13;;;3.10;;
3865;SDS011;1948;53.250;10.412;2023-09-19T06:18:04;26.43;;;3.90;;
3865;SDS011;1948;53.250;10.412;2023-09-19T06:20:38;16.23;;;3.90;;
3865;SDS011;1948;53.250;10.412;2023-09-19T06:23:11;16.67;;;3.70;;
3865;SDS011;1948;53.250;10.412;2023-09-19T06:25:41;10.33;;;3.50;;
3865;SDS011;1948;53.250;10.412;2023-09-19T06:28:09;17.03;;;3.13;;
3865;SDS011;1948;53.250;10.412;2023-09-19T06:30:41;36.37;;;4.33;;
3865;SDS011;1948;53.250;10.412;2023-09-19T06:33:09;10.90;;;3.73;;
3865;SDS011;1948;53.250;10.412;2023-09-19T06:35:42;18.93;;;4.80;;
3865;SDS011;1948;53.250;10.412;2023-09-19T06:38:13;35.47;;;4.53;;
3865;SDS011;1948;53.250;10.412;2023-09-19T06:40:41;25.80;;;4.73;;
3865;SDS011;1948;53.250;10.412;2023-09-19T06:43:09;18.03;;;3.13;;
3865;SDS011;1948;53.250;10.412;2023-09-19T06:45:40;10.60;;;3.03;;
3865;SDS011;1948;53.250;10.412;2023-09-19T06:48:09;13.63;;;3.50;;
3865;SDS011;1948;53.250;10.412;2023-09-19T06:50:36;14.40;;;3.70;;
3865;SDS011;1948;53.250;10.412;2023-09-19T06:53:04;9.93;;;3.10;;
3865;SDS011;1948;53.250;10.412;2023-09-19T06:55:32;15.80;;;3.80;;
3865;SDS011;1948;53.250;10.412;2023-09-19T06:58:01;26.57;;;5.00;;
3865;SDS011;1948;53.250;10.412;2023-09-19T07:00:29;16.33;;;3.40;;
3865;SDS011;1948;53.250;10.412;2023-09-19T07:03:01;17.03;;;4.27;;
3865;SDS011;1948;53.250;10.412;2023-09-19T07:05:31;13.73;;;3.73;;
3865;SDS011;1948;53.250;10.412;2023-09-19T07:08:06;14.17;;;3.30;;
3865;SDS011;1948;53.250;10.412;2023-09-19T07:10:37;18.57;;;4.47;;
3865;SDS011;1948;53.250;10.412;2023-09-19T07:13:15;21.80;;;5.80;;
3865;SDS011;1948;53.250;10.412;2023-09-19T07:15:43;12.10;;;4.00;;
3865;SDS011;1948;53.250;10.412;2023-09-19T07:18:14;14.73;;;3.53;;
3865;SDS011;1948;53.250;10.412;2023-09-19T07:20:46;14.70;;;4.27;;
3865;SDS011;1948;53.250;10.412;2023-09-19T07:23:19;24.63;;;4.37;;
3865;SDS011;1948;53.250;10.412;2023-09-19T07:25:49;9.67;;;3.00;;
3865;SDS011;1948;53.250;10.412;2023-09-19T07:28:17;12.63;;;4.10;;
3865;SDS011;1948;53.250;10.412;2023-09-19T07:30:45;27.47;;;3.77;;
3865;SDS011;1948;53.250;10.412;2023-09-19T07:33:15;18.73;;;4.10;;
3865;SDS011;1948;53.250;10.412;2023-09-19T07:35:45;14.50;;;4.20;;
3865;SDS011;1948;53.250;10.412;2023-09-19T07:38:14;9.50;;;4.00;;
3865;SDS011;1948;53.250;10.412;2023-09-19T07:40:41;15.33;;;4.53;;
3865;SDS011;1948;53.250;10.412;2023-09-19T07:43:08;19.37;;;4.30;;
3865;SDS011;1948;53.250;10.412;2023-09-19T07:45:35;9.70;;;3.70;;
3865;SDS011;1948;53.250;10.412;2023-09-19T07:48:03;14.53;;;4.30;;
3865;SDS011;1948;53.250;10.412;2023-09-19T07:50:35;18.53;;;5.00;;
3865;SDS011;1948;53.250;10.412;2023-09-19T07:53:03;14.67;;;5.50;;
3865;SDS011;1948;53.250;10.412;2023-09-19T07:55:31;24.07;;;5.10;;
3865;SDS011;1948;53.250;10.412;2023-09-19T07:58:01;20.80;;;4.57;;
3865;SDS011;1948;53.250;10.412;2023-09-19T08:00:30;26.33;;;4.70;;
3865;SDS011;1948;53.250;10.412;2023-09-19T08:03:01;28.07;;;4.73;;
3865;SDS011;1948;53.250;10.412;2023-09-19T08:05:42;11.60;;;3.90;;
3865;SDS011;1948;53.250;10.412;2023-09-19T08:08:11;12.17;;;3.93;;
3865;SDS011;1948;53.250;10.412;2023-09-19T08:10:42;15.70;;;4.27;;
3865;SDS011;1948;53.250;10.412;2023-09-19T08:13:10;9.10;;;4.00;;
3865;SDS011;1948;53.250;10.412;2023-09-19T08:15:43;11.60;;;4.30;;
3865;SDS011;1948;53.250;10.412;2023-09-19T08:18:15;18.27;;;3.67;;
3865;SDS011;1948;53.250;10.412;2023-09-19T08:20:43;15.57;;;3.77;;
3865;SDS011;1948;53.250;10.412;2023-09-19T08:23:12;19.57;;;3.70;;
3865;SDS011;1948;53.250;10.412;2023-09-19T08:25:40;5.33;;;2.77;;
3865;SDS011;1948;53.250;10.412;2023-09-19T08:28:11;16.23;;;4.43;;
3865;SDS011;1948;53.250;10.412;2023-09-19T08:30:45;14.03;;;3.43;;
3865;SDS011;1948;53.250;10.412;2023-09-19T08:33:15;14.67;;;3.27;;
3865;SDS011;1948;53.250;10.412;2023-09-19T08:35:42;15.90;;;3.50;;
3865;SDS011;1948;53.250;10.412;2023-09-19T08:38:11;14.13;;;3.80;;
3865;SDS011;1948;53.250;10.412;2023-09-19T08:40:40;12.83;;;3.67;;
3865;SDS011;1948;53.250;10.412;2023-09-19T08:43:14;19.27;;;3.63;;
3865;SDS011;1948;53.250;10.412;2023-09-19T08:45:41;8.63;;;2.90;;
3865;SDS011;1948;53.250;10.412;2023-09-19T08:48:22;11.23;;;3.20;;
3865;SDS011;1948;53.250;10.412;2023-09-19T08:51:02;17.60;;;3.30;;
3865;SDS011;1948;53.250;10.412;2023-09-19T08:56:25;9.30;;;2.90;;
3865;SDS011;1948;53.250;10.412;2023-09-19T08:58:57;15.43;;;3.33;;
3865;SDS011;1948;53.250;10.412;2023-09-19T09:01:34;10.80;;;3.20;;
3865;SDS011;1948;53.250;10.412;2023-09-19T09:04:02;12.20;;;3.33;;
3865;SDS011;1948;53.250;10.412;2023-09-19T09:06:35;13.90;;;3.20;;
3865;SDS011;1948;53.250;10.412;2023-09-19T09:09:06;10.67;;;2.90;;
3865;SDS011;1948;53.250;10.412;2023-09-19T09:11:37;11.27;;;3.03;;
3865;SDS011;1948;53.250;10.412;2023-09-19T09:14:06;11.63;;;2.83;;
3865;SDS011;1948;53.250;10.412;2023-09-19T09:16:36;7.50;;;3.00;;
3865;SDS011;1948;53.250;10.412;2023-09-19T09:19:06;13.03;;;2.87;;
3865;SDS011;1948;53.250;10.412;2023-09-19T09:21:33;12.97;;;2.87;;
3865;SDS011;1948;53.250;10.412;2023-09-19T09:27:00;12.70;;;3.10;;
3865;SDS011;1948;53.250;10.412;2023-09-19T09:29:40;9.87;;;3.03;;
3865;SDS011;1948;53.250;10.412;2023-09-19T09:32:28;20.67;;;2.90;;
3865;SDS011;1948;53.250;10.412;2023-09-19T09:35:01;24.03;;;3.40;;
3865;SDS011;1948;53.250;10.412;2023-09-19T09:37:42;12.90;;;2.90;;
3865;SDS011;1948;53.250;10.412;2023-09-19T09:40:14;8.67;;;2.87;;
3865;SDS011;1948;53.250;10.412;2023-09-19T09:42:41;11.03;;;3.10;;
3865;SDS011;1948;53.250;10.412;2023-09-19T09:47:59;8.90;;;2.57;;
3865;SDS011;1948;53.250;10.412;2023-09-19T09:50:34;17.53;;;3.50;;
3865;SDS011;1948;53.250;10.412;2023-09-19T09:53:20;7.00;;;3.20;;
3865;SDS011;1948;53.250;10.412;2023-09-19T09:58:36;10.90;;;3.43;;
3865;SDS011;1948;53.250;10.412;2023-09-19T10:01:26;8.97;;;3.47;;
3865;SDS011;1948;53.250;10.412;2023-09-19T10:03:57;9.10;;;2.80;;
3865;SDS011;1948;53.250;10.412;2023-09-19T10:06:27;9.30;;;2.87;;
3865;SDS011;1948;53.250;10.412;2023-09-19T10:09:13;8.03;;;2.47;;
3865;SDS011;1948;53.250;10.412;2023-09-19T10:11:58;8.70;;;2.90;;
3865;SDS011;1948;53.250;10.412;2023-09-19T10:14:37;4.80;;;2.70;;
3865;SDS011;1948;53.250;10.412;2023-09-19T10:17:05;7.77;;;2.80;;
3865;SDS011;1948;53.250;10.412;2023-09-19T10:19:37;6.17;;;2.40;;
3865;SDS011;1948;53.250;10.412;2023-09-19T10:22:24;7.30;;;3.03;;
3865;SDS011;1948;53.250;10.412;2023-09-19T10:24:53;5.83;;;2.73;;
3865;SDS011;1948;53.250;10.412;2023-09-19T10:27:29;8.53;;;3.07;;
3865;SDS011;1948;53.250;10.412;2023-09-19T10:30:05;11.40;;;3.60;;
3865;SDS011;1948;53.250;10.412;2023-09-19T10:32:35;4.30;;;2.50;;
3865;SDS011;1948;53.250;10.412;2023-09-19T10:35:10;13.70;;;2.90;;
3865;SDS011;1948;53.250;10.412;2023-09-19T10:37:39;8.17;;;3.27;;
3865;SDS011;1948;53.250;10.412;2023-09-19T10:40:12;12.00;;;3.37;;
3865;SDS011;1948;53.250;10.412;2023-09-19T10:42:42;6.97;;;3.03;;
3865;SDS011;1948;53.250;10.412;2023-09-19T10:45:12;4.57;;;2.33;;
3865;SDS011;1948;53.250;10.412;2023-09-19T10:47:42;10.33;;;3.50;;
3865;SDS011;1948;53.250;10.412;2023-09-19T10:50:09;10.17;;;2.90;;
3865;SDS011;1948;53.250;10.412;2023-09-19T10:52:49;6.37;;;3.30;;
3865;SDS011;1948;53.250;10.412;2023-09-19T10:55:27;6.03;;;2.50;;
3865;SDS011;1948;53.250;10.412;2023-09-19T10:57:56;5.80;;;2.33;;
3865;SDS011;1948;53.250;10.412;2023-09-19T11:00:56;12.17;;;3.20;;
3865;SDS011;1948;53.250;10.412;2023-09-19T11:03:39;9.43;;;3.23;;
3865;SDS011;1948;53.250;10.412;2023-09-19T11:06:14;5.03;;;2.70;;
3865;SDS011;1948;53.250;10.412;2023-09-19T11:11:40;5.17;;;2.50;;
3865;SDS011;1948;53.250;10.412;2023-09-19T11:30:45;17.50;;;2.50;;
3865;SDS011;1948;53.250;10.412;2023-09-19T11:33:26;6.27;;;2.90;;
3865;SDS011;1948;53.250;10.412;2023-09-19T11:36:13;5.13;;;2.63;;
3865;SDS011;1948;53.250;10.412;2023-09-19T11:46:55;8.97;;;2.47;;
3865;SDS011;1948;53.250;10.412;2023-09-19T11:49:28;3.73;;;2.57;;
3865;SDS011;1948;53.250;10.412;2023-09-19T11:52:01;12.20;;;2.87;;
3865;SDS011;1948;53.250;10.412;2023-09-19T11:54:35;10.13;;;3.37;;
3865;SDS011;1948;53.250;10.412;2023-09-19T11:57:08;15.77;;;3.47;;
3865;SDS011;1948;53.250;10.412;2023-09-19T11:59:49;7.03;;;2.70;;
3865;SDS011;1948;53.250;10.412;2023-09-19T12:02:27;6.37;;;2.83;;
3865;SDS011;1948;53.250;10.412;2023-09-19T12:05:07;6.53;;;3.03;;
3865;SDS011;1948;53.250;10.412;2023-09-19T12:07:42;9.73;;;2.57;;
3865;SDS011;1948;53.250;10.412;2023-09-19T12:10:12;3.90;;;2.67;;
3865;SDS011;1948;53.250;10.412;2023-09-19T12:12:46;7.50;;;2.70;;
3865;SDS011;1948;53.250;10.412;2023-09-19T12:15:23;17.93;;;2.70;;
3865;SDS011;1948;53.250;10.412;2023-09-19T12:17:55;7.60;;;2.70;;
3865;SDS011;1948;53.250;10.412;2023-09-19T12:20:25;7.37;;;3.17;;
3865;SDS011;1948;53.250;10.412;2023-09-19T12:23:13;5.43;;;2.90;;
3865;SDS011;1948;53.250;10.412;2023-09-19T12:25:42;7.40;;;2.83;;
3865;SDS011;1948;53.250;10.412;2023-09-19T12:28:16;12.70;;;2.83;;
3865;SDS011;1948;53.250;10.412;2023-09-19T12:30:48;8.70;;;2.53;;
3865;SDS011;1948;53.250;10.412;2023-09-19T12:33:16;5.10;;;2.77;;
3865;SDS011;1948;53.250;10.412;2023-09-19T12:35:47;7.10;;;2.73;;
3865;SDS011;1948;53.250;10.412;2023-09-19T12:38:24;12.07;;;3.50;;
3865;SDS011;1948;53.250;10.412;2023-09-19T12:40:58;15.67;;;3.17;;
3865;SDS011;1948;53.250;10.412;2023-09-19T12:43:29;5.20;;;2.77;;
3865;SDS011;1948;53.250;10.412;2023-09-19T12:46:03;7.00;;;3.20;;
3865;SDS011;1948;53.250;10.412;2023-09-19T12:48:32;7.90;;;3.07;;
3865;SDS011;1948;53.250;10.412;2023-09-19T12:53:43;13.33;;;3.17;;
3865;SDS011;1948;53.250;10.412;2023-09-19T12:56:17;7.53;;;2.80;;
3865;SDS011;1948;53.250;10.412;2023-09-19T12:58:56;6.67;;;2.70;;
3865;SDS011;1948;53.250;10.412;2023-09-19T13:01:29;15.60;;;3.00;;
3865;SDS011;1948;53.250;10.412;2023-09-19T13:04:16;9.43;;;3.10;;
3865;SDS011;1948;53.250;10.412;2023-09-19T13:06:46;4.90;;;3.00;;
3865;SDS011;1948;53.250;10.412;2023-09-19T13:09:21;20.30;;;3.00;;
3865;SDS011;1948;53.250;10.412;2023-09-19T13:11:58;8.10;;;2.90;;
3865;SDS011;1948;53.250;10.412;2023-09-19T13:14:29;12.50;;;3.70;;
3865;SDS011;1948;53.250;10.412;2023-09-19T13:17:07;9.43;;;3.60;;
3865;SDS011;1948;53.250;10.412;2023-09-19T13:19:46;11.37;;;3.70;;
3865;SDS011;1948;53.250;10.412;2023-09-19T13:25:22;11.73;;;3.27;;
3865;SDS011;1948;53.250;10.412;2023-09-19T13:27:55;10.23;;;3.60;;
3865;SDS011;1948;53.250;10.412;2023-09-19T13:30:25;9.90;;;3.33;;
3865;SDS011;1948;53.250;10.412;2023-09-19T13:33:05;16.33;;;2.70;;
3865;SDS011;1948;53.250;10.412;2023-09-19T13:35:38;5.03;;;2.73;;
3865;SDS011;1948;53.250;10.412;2023-09-19T13:38:13;12.60;;;3.40;;
3865;SDS011;1948;53.250;10.412;2023-09-19T13:40:45;10.97;;;3.50;;
3865;SDS011;1948;53.250;10.412;2023-09-19T13:43:14;4.23;;;2.50;;
3865;SDS011;1948;53.250;10.412;2023-09-19T13:45:41;12.20;;;3.57;;
3865;SDS011;1948;53.250;10.412;2023-09-19T13:48:09;6.80;;;2.70;;
3865;SDS011;1948;53.250;10.412;2023-09-19T13:50:40;8.47;;;3.37;;
3865;SDS011;1948;53.250;10.412;2023-09-19T13:53:09;4.60;;;3.30;;
3865;SDS011;1948;53.250;10.412;2023-09-19T13:55:36;13.07;;;3.83;;
3865;SDS011;1948;53.250;10.412;2023-09-19T13:58:04;10.97;;;2.90;;
3865;SDS011;1948;53.250;10.412;2023-09-19T14:00:37;9.17;;;3.77;;
3865;SDS011;1948;53.250;10.412;2023-09-19T14:03:07;6.77;;;3.23;;
3865;SDS011;1948;53.250;10.412;2023-09-19T14:05:40;6.80;;;3.63;;
3865;SDS011;1948;53.250;10.412;2023-09-19T14:08:08;11.43;;;3.20;;
3865;SDS011;1948;53.250;10.412;2023-09-19T14:10:35;6.87;;;3.20;;
3865;SDS011;1948;53.250;10.412;2023-09-19T14:13:03;12.23;;;3.70;;
3865;SDS011;1948;53.250;10.412;2023-09-19T14:15:31;9.20;;;3.37;;
3865;SDS011;1948;53.250;10.412;2023-09-19T14:17:58;7.50;;;3.30;;
3865;SDS011;1948;53.250;10.412;2023-09-19T14:20:28;12.73;;;3.87;;
3865;SDS011;1948;53.250;10.412;2023-09-19T14:22:57;16.33;;;3.90;;
3865;SDS011;1948;53.250;10.412;2023-09-19T14:25:30;15.73;;;4.10;;
3865;SDS011;1948;53.250;10.412;2023-09-19T14:27:57;13.43;;;3.77;;
3865;SDS011;1948;53.250;10.412;2023-09-19T14:30:24;10.30;;;3.80;;
3865;SDS011;1948;53.250;10.412;2023-09-19T14:32:54;10.47;;;3.60;;
3865;SDS011;1948;53.250;10.412;2023-09-19T14:35:22;11.70;;;4.03;;
3865;SDS011;1948;53.250;10.412;2023-09-19T14:37:51;3.80;;;3.30;;
3865;SDS011;1948;53.250;10.412;2023-09-19T14:40:19;9.27;;;3.20;;
3865;SDS011;1948;53.250;10.412;2023-09-19T14:42:49;10.63;;;3.50;;
3865;SDS011;1948;53.250;10.412;2023-09-19T14:45:18;9.83;;;3.40;;
3865;SDS011;1948;53.250;10.412;2023-09-19T14:47:46;19.00;;;4.20;;
3865;SDS011;1948;53.250;10.412;2023-09-19T14:50:19;8.90;;;3.60;;
3865;SDS011;1948;53.250;10.412;2023-09-19T14:52:48;11.07;;;4.20;;
3865;SDS011;1948;53.250;10.412;2023-09-19T14:55:20;11.50;;;3.83;;
3865;SDS011;1948;53.250;10.412;2023-09-19T14:57:49;12.40;;;3.63;;
3865;SDS011;1948;53.250;10.412;2023-09-19T15:00:20;10.80;;;3.77;;
3865;SDS011;1948;53.250;10.412;2023-09-19T15:02:49;12.03;;;4.40;;
3865;SDS011;1948;53.250;10.412;2023-09-19T15:05:21;6.13;;;3.50;;
3865;SDS011;1948;53.250;10.412;2023-09-19T15:07:49;12.23;;;3.63;;
3865;SDS011;1948;53.250;10.412;2023-09-19T15:10:17;14.57;;;3.90;;
3865;SDS011;1948;53.250;10.412;2023-09-19T15:12:48;36.53;;;4.60;;
3865;SDS011;1948;53.250;10.412;2023-09-19T15:15:15;7.17;;;3.63;;
3865;SDS011;1948;53.250;10.412;2023-09-19T15:17:43;8.37;;;3.80;;
3865;SDS011;1948;53.250;10.412;2023-09-19T15:20:10;16.20;;;4.10;;
3865;SDS011;1948;53.250;10.412;2023-09-19T15:22:40;14.30;;;4.07;;
3865;SDS011;1948;53.250;10.412;2023-09-19T15:25:11;18.77;;;4.20;;
3865;SDS011;1948;53.250;10.412;2023-09-19T15:27:44;15.80;;;4.20;;
3865;SDS011;1948;53.250;10.412;2023-09-19T15:30:17;9.20;;;4.20;;
3865;SDS011;1948;53.250;10.412;2023-09-19T15:32:45;10.73;;;3.90;;
3865;SDS011;1948;53.250;10.412;2023-09-19T15:35:13;14.73;;;3.37;;
3865;SDS011;1948;53.250;10.412;2023-09-19T15:37:43;9.60;;;3.23;;
3865;SDS011;1948;53.250;10.412;2023-09-19T15:40:13;21.10;;;3.67;;
3865;SDS011;1948;53.250;10.412;2023-09-19T15:42:40;4.40;;;3.13;;
3865;SDS011;1948;53.250;10.412;2023-09-19T15:45:08;12.23;;;3.90;;
3865;SDS011;1948;53.250;10.412;2023-09-19T15:47:38;11.87;;;3.80;;
3865;SDS011;1948;53.250;10.412;2023-09-19T15:50:05;12.80;;;3.50;;
3865;SDS011;1948;53.250;10.412;2023-09-19T15:52:36;14.67;;;3.77;;
3865;SDS011;1948;53.250;10.412;2023-09-19T15:55:03;14.23;;;4.00;;
3865;SDS011;1948;53.250;10.412;2023-09-19T15:57:30;12.30;;;3.70;;
3865;SDS011;1948;53.250;10.412;2023-09-19T15:59:58;12.50;;;3.83;;
3865;SDS011;1948;53.250;10.412;2023-09-19T16:02:29;20.30;;;4.00;;
3865;SDS011;1948;53.250;10.412;2023-09-19T16:04:57;17.70;;;4.50;;
3865;SDS011;1948;53.250;10.412;2023-09-19T16:07:24;15.40;;;3.57;;
3865;SDS011;1948;53.250;10.412;2023-09-19T16:09:52;23.90;;;4.43;;
3865;SDS011;1948;53.250;10.412;2023-09-19T16:12:19;14.10;;;4.10;;
3865;SDS011;1948;53.250;10.412;2023-09-19T16:14:47;7.70;;;3.60;;